Time;durP1;ratioP1;P1;durP2;ratioP2;P2;SDS_P1;SDS_P2;PMS_P1;PMS_P2;Temp;Humidity;BMP_temperature;BMP_pressure;BME280_temperature;BME280_humidity;BME280_pressure;Samples;Min_cycle;Max_cycle;Signal;HPM_P1;HPM_P2
2023/05/13 00:00:04;;;;;;;5.20;4.72;;;12.10;99.90;;;;;;6221494;23;20210;-85
2023/05/13 00:02:31;;;;;;;9.48;4.70;;;12.10;99.90;;;;;;6230384;23;20540;-85
2023/05/13 00:04:58;;;;;;;5.07;4.55;;;12.00;99.90;;;;;;6239004;23;20164;-80
2023/05/13 00:07:25;;;;;;;7.22;5.32;;;12.00;99.90;;;;;;6233949;23;20179;-81
2023/05/13 00:09:52;;;;;;;4.82;4.40;;;12.00;99.90;;;;;;6225280;23;20242;-80
2023/05/13 00:12:19;;;;;;;7.63;4.82;;;12.00;99.90;;;;;;6222700;23;20227;-82
2023/05/13 00:14:45;;;;;;;8.38;4.95;;;11.90;99.90;;;;;;6222863;23;20242;-81
2023/05/13 00:17:12;;;;;;;7.65;5.85;;;12.00;99.90;;;;;;6222139;23;20701;-81
2023/05/13 00:19:40;;;;;;;9.02;4.63;;;11.90;99.90;;;;;;6221828;23;20183;-86
2023/05/13 00:22:07;;;;;;;7.45;4.65;;;11.90;99.90;;;;;;6222673;23;20229;-77
2023/05/13 00:24:35;;;;;;;9.93;4.97;;;11.80;99.90;;;;;;6221976;23;20542;-81
2023/05/13 00:27:01;;;;;;;7.13;4.22;;;11.80;99.90;;;;;;6221577;23;20523;-79
2023/05/13 00:29:30;;;;;;;6.00;4.90;;;12.00;99.90;;;;;;6195333;23;20547;-81
2023/05/13 00:32:02;;;;;;;4.80;4.30;;;12.00;99.90;;;;;;6222246;23;20238;-79
2023/05/13 00:34:29;;;;;;;5.55;4.65;;;11.90;99.90;;;;;;6221903;23;20214;-82
2023/05/13 00:36:56;;;;;;;10.85;5.55;;;11.80;99.90;;;;;;6219818;23;20233;-82
2023/05/13 00:39:24;;;;;;;6.57;4.50;;;11.70;99.90;;;;;;6194971;23;20188;-83
2023/05/13 00:41:51;;;;;;;6.05;4.47;;;11.80;99.90;;;;;;6221707;23;20566;-84
2023/05/13 00:44:19;;;;;;;5.80;5.30;;;11.80;99.90;;;;;;6222489;23;20222;-84
2023/05/13 00:46:48;;;;;;;7.03;4.50;;;11.70;99.90;;;;;;6221908;23;20247;-80
2023/05/13 00:49:15;;;;;;;9.02;4.25;;;11.60;99.90;;;;;;6222296;23;20204;-79
2023/05/13 00:51:42;;;;;;;7.18;5.63;;;11.60;99.90;;;;;;6222570;23;20188;-85
2023/05/13 00:54:09;;;;;;;6.00;5.00;;;11.60;99.90;;;;;;6222707;23;20210;-82
2023/05/13 00:56:37;;;;;;;11.32;5.03;;;11.50;99.90;;;;;;6222142;23;20187;-80
2023/05/13 00:59:04;;;;;;;5.63;4.10;;;11.40;99.90;;;;;;6196236;23;20210;-80
2023/05/13 01:01:54;;;;;;;12.13;4.57;;;11.40;99.90;;;;;;6222796;23;20184;-83
2023/05/13 01:04:58;;;;;;;6.22;5.63;;;11.40;99.90;;;;;;6195767;23;20192;-87
2023/05/13 01:07:30;;;;;;;9.48;5.03;;;11.30;99.90;;;;;;6220685;23;20183;-84
2023/05/13 01:10:25;;;;;;;7.53;4.72;;;11.30;99.90;;;;;;6221014;23;20192;-83
2023/05/13 01:12:57;;;;;;;5.72;5.10;;;11.30;99.90;;;;;;6239636;23;20156;-84
2023/05/13 01:15:26;;;;;;;7.93;5.13;;;11.20;99.90;;;;;;6223406;23;20218;-82
2023/05/13 01:17:55;;;;;;;5.90;4.82;;;11.20;99.90;;;;;;6221659;23;20176;-78
2023/05/13 01:20:23;;;;;;;4.60;4.00;;;11.00;99.90;;;;;;6222605;23;20191;-86
2023/05/13 01:22:50;;;;;;;6.22;4.75;;;11.00;99.90;;;;;;6222168;23;20222;-84
2023/05/13 01:25:17;;;;;;;8.57;4.40;;;11.00;99.90;;;;;;6222630;23;20210;-84
2023/05/13 01:27:45;;;;;;;5.90;4.57;;;11.10;99.90;;;;;;6221977;23;20218;-84
2023/05/13 01:30:12;;;;;;;8.18;6.63;;;11.30;99.90;;;;;;6230925;23;20226;-87
2023/05/13 01:32:40;;;;;;;6.60;4.82;;;11.20;99.90;;;;;;6241992;23;20168;-85
2023/05/13 01:35:09;;;;;;;7.55;5.65;;;11.20;99.90;;;;;;6242996;23;20164;-83
2023/05/13 01:37:37;;;;;;;4.75;4.30;;;11.10;99.90;;;;;;6229259;23;20377;-83
2023/05/13 01:40:05;;;;;;;5.07;4.57;;;11.00;99.90;;;;;;6222762;23;20187;-86
2023/05/13 01:42:46;;;;;;;10.10;5.53;;;11.00;99.90;;;;;;6222114;23;20167;-85
2023/05/13 01:45:13;;;;;;;7.60;5.40;;;10.80;99.90;;;;;;6223182;23;20176;-86
2023/05/13 01:47:40;;;;;;;6.00;5.28;;;10.70;99.90;;;;;;6223155;23;20183;-82
2023/05/13 01:50:07;;;;;;;6.78;5.18;;;10.60;99.90;;;;;;6222300;23;20210;-84
2023/05/13 01:52:35;;;;;;;7.30;5.18;;;10.30;99.90;;;;;;6222392;23;20176;-85
2023/05/13 01:55:02;;;;;;;5.10;4.60;;;10.10;99.90;;;;;;6221021;23;20739;-85
2023/05/13 01:57:29;;;;;;;8.60;4.95;;;9.90;99.90;;;;;;6221839;23;20226;-83
2023/05/13 01:59:56;;;;;;;12.60;6.05;;;10.00;99.90;;;;;;6222009;23;20180;-85
2023/05/13 02:02:22;;;;;;;5.65;5.07;;;10.30;99.90;;;;;;6221925;23;20187;-85
2023/05/13 02:04:49;;;;;;;6.68;5.38;;;10.40;99.90;;;;;;6221938;23;20168;-84
2023/05/13 02:07:16;;;;;;;6.75;4.95;;;10.10;99.90;;;;;;6194812;23;20203;-82
2023/05/13 02:09:42;;;;;;;9.00;5.65;;;9.90;99.90;;;;;;6222280;23;20234;-82
2023/05/13 02:12:10;;;;;;;5.43;4.93;;;9.90;99.90;;;;;;6221070;23;20184;-85
2023/05/13 02:14:37;;;;;;;7.15;5.40;;;10.00;99.90;;;;;;6221997;23;20184;-85
2023/05/13 02:17:04;;;;;;;7.18;5.65;;;10.00;99.90;;;;;;6195929;23;20403;-86
2023/05/13 02:19:32;;;;;;;8.10;5.75;;;9.80;99.90;;;;;;6195741;23;20176;-81
2023/05/13 02:21:59;;;;;;;6.53;5.90;;;10.00;99.90;;;;;;6221557;23;20763;-83
2023/05/13 02:24:26;;;;;;;10.18;6.30;;;9.90;99.90;;;;;;6221481;23;20186;-79
2023/05/13 02:26:53;;;;;;;5.63;5.13;;;10.00;99.90;;;;;;6195004;23;20195;-84
2023/05/13 02:29:20;;;;;;;5.57;4.63;;;10.10;99.90;;;;;;6221388;23;20176;-80
2023/05/13 02:31:47;;;;;;;8.80;5.15;;;10.00;99.90;;;;;;6195356;23;20180;-84
2023/05/13 02:34:14;;;;;;;6.82;5.30;;;9.90;99.90;;;;;;6195612;23;20199;-78
2023/05/13 02:36:41;;;;;;;5.85;5.13;;;10.10;99.90;;;;;;6222331;23;20183;-83
2023/05/13 02:39:07;;;;;;;9.18;5.60;;;10.10;99.90;;;;;;6223159;23;20187;-80
2023/05/13 02:41:35;;;;;;;6.18;5.05;;;10.00;99.90;;;;;;6197357;23;20214;-83
2023/05/13 02:44:04;;;;;;;5.60;5.10;;;10.30;99.90;;;;;;6227909;23;20244;-81
2023/05/13 02:46:31;;;;;;;6.20;5.18;;;10.00;99.90;;;;;;6229679;23;20283;-82
2023/05/13 02:48:58;;;;;;;9.80;5.88;;;9.90;99.90;;;;;;6231987;23;20183;-82
2023/05/13 02:51:25;;;;;;;6.78;5.55;;;9.90;99.90;;;;;;6231603;23;20195;-79
2023/05/13 02:53:52;;;;;;;7.72;4.90;;;10.10;99.90;;;;;;6236477;23;20194;-83
2023/05/13 02:56:21;;;;;;;7.22;5.45;;;9.90;99.90;;;;;;6209069;23;20175;-79
2023/05/13 02:58:47;;;;;;;12.90;5.15;;;9.90;99.90;;;;;;6237352;23;20259;-78
2023/05/13 03:01:15;;;;;;;6.40;4.50;;;10.00;99.90;;;;;;6231025;23;20180;-79
2023/05/13 03:03:42;;;;;;;7.28;6.53;;;10.10;99.90;;;;;;6228425;23;20251;-79
2023/05/13 03:06:10;;;;;;;5.75;5.03;;;10.00;99.90;;;;;;6227206;23;20492;-78
2023/05/13 03:08:37;;;;;;;9.68;5.47;;;9.80;99.90;;;;;;6226697;23;20503;-81
2023/05/13 03:11:04;;;;;;;7.63;5.65;;;9.70;99.90;;;;;;6225280;23;20203;-82
2023/05/13 03:13:31;;;;;;;14.27;5.15;;;9.80;99.90;;;;;;6224917;23;20460;-81
2023/05/13 03:15:57;;;;;;;8.75;5.45;;;10.00;99.90;;;;;;6224373;23;20500;-81
2023/05/13 03:18:24;;;;;;;6.60;4.90;;;9.90;99.90;;;;;;6223860;23;20176;-80
2023/05/13 03:20:51;;;;;;;6.55;5.28;;;9.80;99.90;;;;;;6223462;23;20414;-83
2023/05/13 03:23:18;;;;;;;7.75;5.63;;;9.90;99.90;;;;;;6223167;23;20203;-82
2023/05/13 03:25:46;;;;;;;8.38;4.55;;;9.80;99.90;;;;;;6223156;23;20160;-79
2023/05/13 03:28:12;;;;;;;5.82;5.25;;;9.70;99.90;;;;;;6222559;23;20190;-80
2023/05/13 03:30:39;;;;;;;8.45;5.15;;;9.70;99.90;;;;;;6222440;23;20262;-81
2023/05/13 03:33:06;;;;;;;5.57;4.57;;;9.80;99.90;;;;;;6196738;23;20404;-80
2023/05/13 03:35:33;;;;;;;11.30;5.47;;;9.80;99.90;;;;;;6222206;23;20511;-81
2023/05/13 03:38:00;;;;;;;9.68;5.78;;;9.80;99.90;;;;;;6222440;23;20183;-85
2023/05/13 03:40:27;;;;;;;5.15;4.65;;;9.80;99.90;;;;;;6222528;23;20179;-79
2023/05/13 03:42:54;;;;;;;6.82;5.13;;;10.10;99.90;;;;;;6222429;23;20190;-79
2023/05/13 03:45:21;;;;;;;6.30;5.20;;;10.10;99.90;;;;;;6223555;23;20183;-80
2023/05/13 03:47:48;;;;;;;8.10;5.78;;;10.20;99.90;;;;;;6222759;23;20217;-83
2023/05/13 03:50:16;;;;;;;6.65;5.20;;;10.10;99.90;;;;;;6223059;23;20210;-82
2023/05/13 03:52:43;;;;;;;6.25;4.40;;;10.00;99.90;;;;;;6222837;23;20183;-82
2023/05/13 03:55:13;;;;;;;9.40;5.40;;;10.00;99.90;;;;;;6222731;23;20191;-81
2023/05/13 03:57:42;;;;;;;4.80;4.22;;;10.00;99.90;;;;;;6230705;23;20357;-85
2023/05/13 04:00:10;;;;;;;7.35;5.80;;;10.00;99.90;;;;;;6209249;23;20183;-83
2023/05/13 04:02:36;;;;;;;10.73;6.03;;;10.10;99.90;;;;;;6238870;23;20184;-83
2023/05/13 04:05:05;;;;;;;8.98;5.65;;;10.20;99.90;;;;;;6227189;23;20197;-79
2023/05/13 04:07:31;;;;;;;6.35;4.70;;;10.20;99.90;;;;;;6196867;23;20230;-86
2023/05/13 04:09:58;;;;;;;12.90;5.28;;;10.30;99.90;;;;;;6221813;23;20203;-77
2023/05/13 04:12:25;;;;;;;8.35;5.43;;;10.40;99.90;;;;;;6222785;23;20188;-80
2023/05/13 04:14:53;;;;;;;7.40;5.25;;;10.40;99.90;;;;;;6222539;23;20234;-80
2023/05/13 04:17:19;;;;;;;6.55;5.35;;;10.40;99.90;;;;;;6222470;23;20222;-80
2023/05/13 04:19:51;;;;;;;7.20;6.18;;;10.40;99.90;;;;;;6221402;23;20183;-80
2023/05/13 04:22:20;;;;;;;6.85;5.32;;;10.50;99.90;;;;;;6223716;23;20452;-81
2023/05/13 04:24:50;;;;;;;8.00;5.65;;;10.50;99.90;;;;;;6223166;23;20625;-80
2023/05/13 04:27:17;;;;;;;7.05;5.40;;;10.60;99.90;;;;;;6222685;23;20202;-80
2023/05/13 04:29:44;;;;;;;6.25;4.88;;;10.60;99.90;;;;;;6223066;23;20231;-80
2023/05/13 04:32:14;;;;;;;7.68;6.15;;;10.60;99.90;;;;;;6222131;23;20190;-85
2023/05/13 04:34:42;;;;;;;8.15;5.78;;;10.70;99.90;;;;;;6222527;23;20191;-81
2023/05/13 04:37:08;;;;;;;18.92;6.45;;;10.90;99.90;;;;;;6196188;23;20184;-84
2023/05/13 04:39:35;;;;;;;5.55;4.43;;;10.90;99.90;;;;;;6222182;23;20213;-79
2023/05/13 04:42:02;;;;;;;7.72;4.72;;;10.90;99.90;;;;;;6222270;23;20211;-84
2023/05/13 04:44:29;;;;;;;7.13;4.90;;;10.90;99.90;;;;;;6222640;23;20183;-86
2023/05/13 04:46:59;;;;;;;6.95;5.95;;;11.00;99.90;;;;;;6230733;23;20170;-80
2023/05/13 04:49:25;;;;;;;5.68;4.40;;;11.00;99.90;;;;;;6227044;23;20191;-85
2023/05/13 04:51:53;;;;;;;11.38;6.00;;;11.10;99.90;;;;;;6221438;23;20227;-82
2023/05/13 04:54:20;;;;;;;7.55;5.38;;;11.20;99.90;;;;;;6221983;23;20183;-86
2023/05/13 04:56:47;;;;;;;5.10;4.70;;;11.20;99.90;;;;;;6222525;23;20183;-80
2023/05/13 04:59:16;;;;;;;7.75;5.35;;;11.30;99.90;;;;;;6221631;23;20183;-81
2023/05/13 05:01:43;;;;;;;17.65;6.05;;;11.40;99.90;;;;;;6222214;23;20187;-81
2023/05/13 05:04:11;;;;;;;9.02;5.85;;;11.50;99.90;;;;;;6221598;23;20222;-82
2023/05/13 05:06:38;;;;;;;5.25;4.25;;;11.70;99.90;;;;;;6221194;23;20183;-80
2023/05/13 05:09:05;;;;;;;6.78;5.10;;;11.70;99.90;;;;;;6221512;23;20392;-80
2023/05/13 05:11:32;;;;;;;7.70;5.28;;;11.80;99.90;;;;;;6221659;23;20257;-80
2023/05/13 05:13:59;;;;;;;6.05;4.90;;;11.90;99.90;;;;;;6221734;23;20175;-83
2023/05/13 05:16:26;;;;;;;9.00;5.10;;;12.00;99.90;;;;;;6222065;23;20171;-81
2023/05/13 05:18:53;;;;;;;8.10;5.38;;;11.90;99.90;;;;;;6222268;23;20259;-82
2023/05/13 05:21:21;;;;;;;9.57;5.85;;;12.10;99.90;;;;;;6195890;23;20256;-80
2023/05/13 05:23:48;;;;;;;8.15;4.95;;;12.10;99.90;;;;;;6221959;23;20214;-80
2023/05/13 05:26:18;;;;;;;6.07;5.22;;;12.40;99.90;;;;;;6221675;23;20233;-83
2023/05/13 05:28:46;;;;;;;6.35;5.75;;;12.40;99.90;;;;;;6230740;23;20176;-78
2023/05/13 05:31:16;;;;;;;6.60;5.45;;;12.40;99.90;;;;;;6239797;23;20226;-82
2023/05/13 05:33:44;;;;;;;5.68;5.10;;;12.50;99.90;;;;;;6236576;23;20164;-79
2023/05/13 05:36:11;;;;;;;5.28;4.72;;;12.40;99.90;;;;;;6225470;23;20176;-82
2023/05/13 05:38:40;;;;;;;8.73;5.28;;;12.40;99.90;;;;;;6222257;23;20176;-79
2023/05/13 05:41:07;;;;;;;5.75;5.18;;;12.50;99.90;;;;;;6222484;23;20234;-80
2023/05/13 05:43:34;;;;;;;5.78;5.28;;;12.60;99.90;;;;;;6195587;23;20183;-82
2023/05/13 05:46:01;;;;;;;7.40;5.45;;;12.70;99.90;;;;;;6220929;23;20203;-80
2023/05/13 05:48:28;;;;;;;6.47;5.25;;;12.90;99.90;;;;;;6222300;23;20188;-84
2023/05/13 05:50:57;;;;;;;9.55;4.97;;;13.00;99.90;;;;;;6221802;23;20530;-85
2023/05/13 05:53:24;;;;;;;11.02;5.60;;;13.20;99.90;;;;;;6221913;23;20227;-82
2023/05/13 05:55:51;;;;;;;8.75;4.88;;;13.10;99.90;;;;;;6222304;23;20184;-81
2023/05/13 05:58:20;;;;;;;5.65;4.82;;;13.30;99.90;;;;;;6222660;23;20190;-85
2023/05/13 06:00:48;;;;;;;6.03;5.43;;;13.50;99.90;;;;;;6197014;23;20376;-80
2023/05/13 06:03:17;;;;;;;7.85;5.88;;;13.50;99.90;;;;;;6223383;23;20195;-82
2023/05/13 06:05:44;;;;;;;6.00;5.40;;;13.70;99.90;;;;;;6197020;23;20172;-81
2023/05/13 06:08:11;;;;;;;6.82;4.63;;;13.80;99.90;;;;;;6222588;23;20191;-81
2023/05/13 06:10:38;;;;;;;6.32;5.40;;;14.10;99.90;;;;;;6222482;23;20592;-80
2023/05/13 06:13:05;;;;;;;5.13;4.43;;;14.20;99.90;;;;;;6224485;23;20230;-85
2023/05/13 06:15:32;;;;;;;6.17;5.50;;;14.50;99.90;;;;;;6224131;23;20184;-81
2023/05/13 06:18:00;;;;;;;13.03;5.17;;;14.80;99.90;;;;;;6224852;23;20496;-84
2023/05/13 06:20:27;;;;;;;11.43;4.73;;;15.10;99.90;;;;;;6198017;23;20899;-82
2023/05/13 06:22:55;;;;;;;11.27;6.07;;;15.60;99.90;;;;;;6224261;23;20371;-79
2023/05/13 06:25:21;;;;;;;7.90;5.97;;;16.00;99.90;;;;;;6223743;23;20394;-84
2023/05/13 06:27:49;;;;;;;7.00;5.27;;;15.80;99.90;;;;;;6220855;23;20394;-81
2023/05/13 06:30:16;;;;;;;10.40;6.83;;;15.80;99.90;;;;;;6222243;23;20372;-83
2023/05/13 06:32:43;;;;;;;13.53;6.20;;;15.90;99.90;;;;;;6222670;23;20410;-85
2023/05/13 06:35:23;;;;;;;7.50;5.97;;;16.50;99.90;;;;;;6222355;23;20378;-81
2023/05/13 06:37:51;;;;;;;7.70;6.17;;;17.20;99.90;;;;;;6223224;23;20376;-84
2023/05/13 06:40:19;;;;;;;10.13;6.10;;;17.50;99.90;;;;;;6196193;23;20361;-82
2023/05/13 06:42:46;;;;;;;9.40;5.93;;;17.90;99.90;;;;;;6223129;23;20417;-83
2023/05/13 06:45:13;;;;;;;8.10;5.77;;;18.20;99.90;;;;;;6221454;23;20420;-83
2023/05/13 06:47:41;;;;;;;8.57;6.23;;;18.70;99.90;;;;;;6222374;23;20362;-83
2023/05/13 06:50:10;;;;;;;7.23;5.50;;;18.20;99.90;;;;;;6222638;23;20949;-82
2023/05/13 06:52:37;;;;;;;6.53;5.33;;;18.10;99.90;;;;;;6223353;23;20400;-81
2023/05/13 06:55:09;;;;;;;9.40;6.10;;;18.50;99.90;;;;;;6223083;23;20665;-80
2023/05/13 06:57:38;;;;;;;8.33;7.10;;;18.60;99.90;;;;;;6222974;23;20421;-81
2023/05/13 07:00:09;;;;;;;7.00;6.30;;;20.00;99.90;;;;;;6221911;23;20771;-80
2023/05/13 07:02:36;;;;;;;5.80;5.17;;;20.50;99.90;;;;;;6222418;23;20472;-81
2023/05/13 07:05:04;;;;;;;10.60;6.73;;;21.80;99.90;;;;;;6221683;23;20402;-81
2023/05/13 07:07:31;;;;;;;9.03;5.23;;;22.90;99.10;;;;;;6222047;23;20401;-85
2023/05/13 07:09:58;;;;;;;8.47;6.80;;;22.70;98.00;;;;;;6219032;23;20398;-87
2023/05/13 07:12:25;;;;;;;13.13;6.43;;;23.00;97.10;;;;;;6218970;23;20433;-86
2023/05/13 07:14:53;;;;;;;6.87;5.90;;;23.50;96.20;;;;;;6221320;23;20402;-86
2023/05/13 07:17:20;;;;;;;6.20;4.87;;;24.10;94.60;;;;;;6222484;23;20408;-84
2023/05/13 07:19:48;;;;;;;8.43;7.23;;;25.00;92.40;;;;;;6223848;23;20405;-84
2023/05/13 07:22:15;;;;;;;7.17;6.00;;;25.80;87.80;;;;;;6223735;23;20402;-85
2023/05/13 07:24:43;;;;;;;7.10;6.20;;;26.10;84.80;;;;;;6228483;23;20431;-82
2023/05/13 07:27:10;;;;;;;7.20;6.53;;;27.30;76.90;;;;;;6231701;23;20394;-82
2023/05/13 07:29:39;;;;;;;8.23;6.73;;;27.70;73.60;;;;;;6227350;23;20403;-83
2023/05/13 07:32:06;;;;;;;7.13;5.90;;;28.20;71.50;;;;;;6230428;23;20436;-83
2023/05/13 07:34:33;;;;;;;7.27;6.50;;;29.00;66.90;;;;;;6224714;23;20448;-84
2023/05/13 07:37:05;;;;;;;7.60;6.80;;;29.20;62.80;;;;;;6197748;23;20977;-82
2023/05/13 07:39:32;;;;;;;7.17;6.47;;;27.30;67.30;;;;;;6221653;23;20412;-84
2023/05/13 07:41:59;;;;;;;6.67;6.07;;;27.40;69.10;;;;;;6223755;23;20397;-84
2023/05/13 07:44:34;;;;;;;6.93;6.23;;;28.70;65.70;;;;;;6199772;23;20384;-81
2023/05/13 07:47:01;;;;;;;8.00;7.00;;;28.70;64.40;;;;;;6222122;23;20413;-83
2023/05/13 07:49:28;;;;;;;8.70;7.37;;;28.70;65.00;;;;;;6222140;23;20421;-82
2023/05/13 07:51:55;;;;;;;6.93;6.27;;;30.90;60.20;;;;;;6221719;23;20432;-83
2023/05/13 07:54:23;;;;;;;8.33;7.50;;;32.40;55.90;;;;;;6195931;23;20397;-81
2023/05/13 07:56:49;;;;;;;7.23;6.23;;;31.10;55.40;;;;;;6221677;23;20579;-85
2023/05/13 07:59:17;;;;;;;7.57;6.07;;;29.90;56.90;;;;;;6225504;23;20397;-83
2023/05/13 08:01:45;;;;;;;16.03;6.60;;;29.20;58.80;;;;;;6239163;23;20393;-86
2023/05/13 08:04:11;;;;;;;6.20;5.60;;;29.10;58.70;;;;;;6237542;23;20425;-83
2023/05/13 08:06:39;;;;;;;6.97;6.37;;;29.20;59.50;;;;;;6206268;23;20389;-83
2023/05/13 08:09:08;;;;;;;8.10;6.10;;;29.90;58.40;;;;;;6223153;23;20402;-82
2023/05/13 08:11:35;;;;;;;7.43;5.60;;;31.40;57.40;;;;;;6220834;23;20437;-86
2023/05/13 08:14:02;;;;;;;8.33;6.53;;;31.90;55.50;;;;;;6222404;23;20402;-82
2023/05/13 08:16:29;;;;;;;9.20;6.20;;;30.90;55.30;;;;;;6220957;23;20455;-81
2023/05/13 08:18:56;;;;;;;12.30;7.10;;;30.20;55.70;;;;;;6194657;23;20745;-83
2023/05/13 08:21:23;;;;;;;6.60;6.00;;;29.70;58.00;;;;;;6220192;23;20398;-84
2023/05/13 08:23:51;;;;;;;5.83;5.33;;;30.00;57.80;;;;;;6195114;23;20820;-82
2023/05/13 08:26:18;;;;;;;8.20;6.27;;;29.80;57.50;;;;;;6220232;23;20447;-84
2023/05/13 08:28:46;;;;;;;7.03;6.40;;;29.80;57.90;;;;;;6220070;23;20421;-83
2023/05/13 08:31:13;;;;;;;5.67;5.23;;;29.70;57.90;;;;;;6219479;23;20429;-84
2023/05/13 08:33:44;;;;;;;6.80;5.80;;;29.00;57.90;;;;;;6218859;23;20432;-82
2023/05/13 08:36:11;;;;;;;6.90;6.10;;;29.70;58.40;;;;;;6220872;23;20389;-82
2023/05/13 08:38:39;;;;;;;6.70;6.03;;;29.40;58.30;;;;;;6193284;23;20405;-82
2023/05/13 08:41:06;;;;;;;6.17;4.50;;;29.60;59.60;;;;;;6219914;23;20401;-81
2023/05/13 08:43:35;;;;;;;5.97;5.47;;;30.20;57.50;;;;;;6221423;23;20404;-84
2023/05/13 08:46:03;;;;;;;6.60;6.00;;;30.20;56.90;;;;;;6222011;23;20563;-82
2023/05/13 08:48:33;;;;;;;6.40;5.80;;;29.60;57.60;;;;;;6220293;23;20378;-85
2023/05/13 08:51:01;;;;;;;6.70;6.10;;;28.80;58.70;;;;;;6220596;23;20460;-82
2023/05/13 08:53:30;;;;;;;5.70;5.00;;;28.40;60.30;;;;;;6169649;23;20734;-85
2023/05/13 08:55:59;;;;;;;5.20;4.70;;;29.90;58.10;;;;;;6219730;23;20459;-85
2023/05/13 08:58:26;;;;;;;6.10;5.20;;;30.70;57.00;;;;;;6220126;23;20397;-81
2023/05/13 09:00:54;;;;;;;4.77;4.37;;;31.50;55.20;;;;;;6217537;23;20401;-85
2023/05/13 09:03:21;;;;;;;5.10;4.50;;;30.70;55.20;;;;;;6221524;23;20421;-82
2023/05/13 09:05:49;;;;;;;6.50;5.00;;;29.00;57.70;;;;;;6221440;23;20393;-82
2023/05/13 09:08:15;;;;;;;9.17;5.33;;;29.70;58.00;;;;;;6220682;23;20394;-79
2023/05/13 09:10:43;;;;;;;5.13;4.57;;;30.60;55.90;;;;;;6219879;23;20398;-81
2023/05/13 09:13:16;;;;;;;5.07;4.60;;;31.90;54.20;;;;;;6221758;23;20441;-82
2023/05/13 09:15:43;;;;;;;7.30;4.00;;;30.20;52.90;;;;;;6234922;23;20728;-83
2023/05/13 09:18:12;;;;;;;5.10;4.60;;;30.00;53.60;;;;;;6234803;23;20872;-87
2023/05/13 09:20:42;;;;;;;6.30;4.60;;;29.90;53.40;;;;;;6240477;23;20378;-82
2023/05/13 09:23:10;;;;;;;6.00;3.80;;;30.10;53.60;;;;;;6237174;23;20512;-82
2023/05/13 09:25:37;;;;;;;3.50;3.20;;;29.40;53.00;;;;;;6222427;23;20433;-82
2023/05/13 09:28:06;;;;;;;4.50;3.17;;;27.90;55.40;;;;;;6221734;23;20405;-83
2023/05/13 09:30:39;;;;;;;4.33;4.03;;;26.00;58.70;;;;;;6221123;23;20390;-81
2023/05/13 09:33:14;;;;;;;6.93;4.87;;;24.50;64.10;;;;;;6221445;23;20428;-81
2023/05/13 09:35:43;;;;;;;5.53;4.83;;;23.60;68.30;;;;;;6222217;23;20412;-80
2023/05/13 09:38:24;;;;;;;7.03;4.73;;;22.80;75.90;;;;;;6221056;23;20393;-81
2023/05/13 09:40:56;;;;;;;6.37;4.50;;;22.50;79.90;;;;;;6221525;23;20374;-83
2023/05/13 09:43:25;;;;;;;5.10;4.13;;;22.50;81.30;;;;;;6193746;23;20397;-84
2023/05/13 09:45:57;;;;;;;5.03;4.13;;;22.60;82.00;;;;;;6220846;23;20425;-82
2023/05/13 09:48:26;;;;;;;6.20;4.33;;;22.80;83.20;;;;;;6220820;23;20384;-82
2023/05/13 09:50:56;;;;;;;7.63;6.73;;;23.20;88.20;;;;;;6197120;23;20741;-83
2023/05/13 09:53:24;;;;;;;5.00;4.50;;;23.50;85.10;;;;;;6220945;23;20473;-82
2023/05/13 09:55:52;;;;;;;4.67;4.20;;;23.10;84.00;;;;;;6222910;23;20444;-82
2023/05/13 09:58:20;;;;;;;6.53;4.20;;;22.50;86.20;;;;;;6222809;23;20394;-83
2023/05/13 10:00:48;;;;;;;6.10;5.00;;;22.10;88.20;;;;;;6224593;23;20375;-82
2023/05/13 10:03:15;;;;;;;5.53;4.80;;;21.60;89.90;;;;;;6221340;23;20996;-84
2023/05/13 10:05:42;;;;;;;4.70;4.13;;;22.10;90.90;;;;;;6223779;23;20394;-83
2023/05/13 10:08:11;;;;;;;5.13;4.50;;;22.70;86.10;;;;;;6223408;23;20472;-85
2023/05/13 10:10:39;;;;;;;5.73;4.73;;;22.90;86.70;;;;;;6222562;23;20738;-86
2023/05/13 10:13:13;;;;;;;7.20;3.93;;;22.50;88.40;;;;;;6222938;23;20437;-85
2023/05/13 10:15:50;;;;;;;4.43;4.03;;;22.00;88.50;;;;;;6222976;23;20381;-80
2023/05/13 10:18:19;;;;;;;4.90;4.50;;;21.40;89.90;;;;;;6222274;23;20569;-86
2023/05/13 10:20:51;;;;;;;3.97;3.43;;;20.90;90.00;;;;;;6196422;23;20393;-83
2023/05/13 10:23:19;;;;;;;5.50;3.87;;;21.00;90.00;;;;;;6221606;23;20416;-83
2023/05/13 10:25:55;;;;;;;3.40;3.20;;;21.40;88.90;;;;;;6221563;23;20420;-86
2023/05/13 10:28:25;;;;;;;3.80;3.50;;;21.00;89.80;;;;;;6221047;23;20404;-84
2023/05/13 10:30:52;;;;;;;3.97;3.67;;;20.50;91.10;;;;;;6194683;23;20389;-82
2023/05/13 10:33:19;;;;;;;4.97;3.60;;;20.30;92.00;;;;;;6194985;23;20478;-85
2023/05/13 10:35:56;;;;;;;5.73;3.60;;;20.30;90.90;;;;;;6219881;23;20432;-83
2023/05/13 10:38:42;;;;;;;3.00;2.80;;;20.40;91.50;;;;;;6220156;23;20664;-83
2023/05/13 10:41:11;;;;;;;3.27;3.03;;;20.40;88.10;;;;;;6195744;23;20356;-82
2023/05/13 10:43:39;;;;;;;6.50;4.10;;;20.80;89.60;;;;;;6220707;23;20553;-82
2023/05/13 10:46:10;;;;;;;4.97;3.53;;;20.40;89.10;;;;;;6221398;23;20617;-84
2023/05/13 10:48:44;;;;;;;11.77;4.50;;;20.20;90.60;;;;;;6221809;23;20696;-82
2023/05/13 10:51:16;;;;;;;5.43;3.50;;;20.40;90.30;;;;;;6198819;23;20455;-82
2023/05/13 10:53:46;;;;;;;3.77;3.47;;;20.70;90.50;;;;;;6220713;23;20376;-86
2023/05/13 10:56:14;;;;;;;4.80;3.33;;;21.10;90.70;;;;;;6194127;23;20400;-84
2023/05/13 10:58:41;;;;;;;4.73;4.03;;;20.50;90.10;;;;;;6220183;23;20390;-85
2023/05/13 11:01:15;;;;;;;3.87;3.33;;;20.00;91.40;;;;;;6224830;23;20639;-82
2023/05/13 11:04:02;;;;;;;7.73;3.13;;;20.60;91.40;;;;;;6223636;23;20640;-84
2023/05/13 11:06:33;;;;;;;3.50;3.20;;;21.10;90.10;;;;;;6223096;23;20449;-83
2023/05/13 11:09:03;;;;;;;4.43;4.10;;;21.30;85.10;;;;;;6224150;23;20382;-84
2023/05/13 11:11:32;;;;;;;4.70;3.50;;;21.10;85.10;;;;;;6195233;23;20416;-79
2023/05/13 11:13:59;;;;;;;4.60;3.50;;;21.20;81.60;;;;;;6220230;23;20479;-80
2023/05/13 11:16:26;;;;;;;3.90;3.50;;;21.40;79.20;;;;;;6220571;23;20404;-82
2023/05/13 11:18:53;;;;;;;4.13;3.73;;;21.50;81.80;;;;;;6220346;23;20402;-82
2023/05/13 11:21:35;;;;;;;4.50;4.10;;;21.40;81.60;;;;;;6219552;23;20468;-81
2023/05/13 11:24:04;;;;;;;7.03;4.00;;;21.60;80.80;;;;;;6221046;23;20419;-80
2023/05/13 11:26:49;;;;;;;3.43;3.23;;;21.50;81.90;;;;;;6219672;23;20396;-77
2023/05/13 11:29:29;;;;;;;5.30;3.13;;;21.20;81.90;;;;;;6221737;23;20788;-82
2023/05/13 11:31:57;;;;;;;5.60;3.40;;;21.30;81.50;;;;;;6228808;23;20436;-81
2023/05/13 11:34:27;;;;;;;4.10;3.80;;;21.20;82.00;;;;;;6219022;23;20397;-78
2023/05/13 11:37:02;;;;;;;3.77;3.23;;;20.60;82.40;;;;;;6219614;23;20472;-80
2023/05/13 11:39:31;;;;;;;3.47;2.90;;;20.80;83.20;;;;;;6220008;23;20384;-83
2023/05/13 11:42:00;;;;;;;4.70;3.50;;;21.30;81.80;;;;;;6194431;23;20451;-82
2023/05/13 11:44:27;;;;;;;4.80;2.90;;;21.70;79.80;;;;;;6223045;23;20530;-81
2023/05/13 11:46:56;;;;;;;3.87;3.50;;;21.60;81.00;;;;;;6219090;23;20380;-80
2023/05/13 11:49:43;;;;;;;4.50;4.10;;;22.10;80.40;;;;;;6201490;23;20377;-84
2023/05/13 11:52:19;;;;;;;5.30;3.43;;;21.80;78.60;;;;;;6235228;23;20425;-82
2023/05/13 11:54:53;;;;;;;4.73;4.23;;;22.20;78.30;;;;;;6232071;23;20370;-83
2023/05/13 11:57:28;;;;;;;4.40;3.40;;;21.90;77.70;;;;;;6219355;23;20420;-81
2023/05/13 11:59:57;;;;;;;3.57;3.27;;;21.40;80.40;;;;;;6219415;23;20369;-80
2023/05/13 12:02:33;;;;;;;4.17;3.77;;;21.30;81.30;;;;;;6218998;23;20567;-77
2023/05/13 12:05:06;;;;;;;3.87;3.23;;;21.40;81.80;;;;;;6219036;23;20706;-82
2023/05/13 12:07:34;;;;;;;4.27;3.53;;;21.50;79.80;;;;;;6217883;23;20378;-78
2023/05/13 12:10:02;;;;;;;7.10;3.00;;;21.80;80.30;;;;;;6218222;23;20760;-78
2023/05/13 12:12:32;;;;;;;6.80;4.00;;;22.40;79.20;;;;;;6191571;23;20422;-78
2023/05/13 12:15:00;;;;;;;6.90;3.40;;;23.00;76.70;;;;;;6218966;23;20464;-80
2023/05/13 12:17:29;;;;;;;4.97;4.20;;;23.40;76.90;;;;;;6218848;23;20402;-83
2023/05/13 12:20:11;;;;;;;5.70;3.00;;;23.40;73.90;;;;;;6219392;23;20383;-80
2023/05/13 12:22:41;;;;;;;6.20;4.07;;;23.00;73.00;;;;;;6191462;23;20372;-82
2023/05/13 12:25:30;;;;;;;4.80;4.27;;;22.90;76.10;;;;;;6192937;23;20578;-81
2023/05/13 12:28:12;;;;;;;3.70;3.40;;;22.30;76.60;;;;;;6218080;23;20361;-81
2023/05/13 12:30:51;;;;;;;5.57;3.80;;;22.00;79.10;;;;;;6218113;23;20698;-80
2023/05/13 12:33:20;;;;;;;4.10;3.70;;;21.60;79.10;;;;;;6219045;23;20488;-83
2023/05/13 12:35:50;;;;;;;3.23;2.93;;;21.40;77.90;;;;;;6218611;23;20467;-79
2023/05/13 12:38:19;;;;;;;3.30;3.00;;;20.90;77.10;;;;;;6192226;23;20398;-82
2023/05/13 12:40:47;;;;;;;8.90;3.20;;;20.90;78.80;;;;;;6219391;23;20397;-81
2023/05/13 12:43:18;;;;;;;4.70;3.03;;;20.90;78.90;;;;;;6219208;23;20644;-79
2023/05/13 12:45:50;;;;;;;3.43;3.10;;;20.90;79.70;;;;;;6220039;23;20419;-81
2023/05/13 12:48:22;;;;;;;4.30;2.87;;;21.10;78.20;;;;;;6223993;23;20900;-84
2023/05/13 12:50:50;;;;;;;3.17;2.90;;;21.20;78.20;;;;;;6229614;23;20390;-85
2023/05/13 12:53:16;;;;;;;2.93;2.57;;;21.40;77.00;;;;;;6230496;23;20736;-81